sensor_id;sensor_type;location;lat;lon;timestamp;pressure;altitude;pressure_sealevel;temperature;humidity
12073;BME280;6098;49.004;8.372;2023-04-01T00:01:06;98992.23;;;11.17;76.26
12073;BME280;6098;49.004;8.372;2023-04-01T00:15:56;98985.92;;;11.12;77.23
12073;BME280;6098;49.004;8.372;2023-04-01T00:30:48;98980.45;;;11.08;77.78
12073;BME280;6098;49.004;8.372;2023-04-01T00:45:43;98990.72;;;11.13;77.42
12073;BME280;6098;49.004;8.372;2023-04-01T01:00:35;98975.06;;;11.16;77.21
12073;BME280;6098;49.004;8.372;2023-04-01T01:30:35;98961.80;;;11.10;78.42
12073;BME280;6098;49.004;8.372;2023-04-01T01:45:29;98960.19;;;11.00;80.45
12073;BME280;6098;49.004;8.372;2023-04-01T02:00:19;98950.17;;;10.91;80.31
12073;BME280;6098;49.004;8.372;2023-04-01T02:15:10;98940.41;;;10.63;77.61
12073;BME280;6098;49.004;8.372;2023-04-01T02:30:02;98937.59;;;10.59;76.44
12073;BME280;6098;49.004;8.372;2023-04-01T02:44:53;98939.63;;;10.55;76.95
12073;BME280;6098;49.004;8.372;2023-04-01T02:59:43;98941.31;;;10.56;76.68
12073;BME280;6098;49.004;8.372;2023-04-01T03:14:33;98942.55;;;10.50;76.62
12073;BME280;6098;49.004;8.372;2023-04-01T03:29:25;98951.02;;;10.56;76.08
12073;BME280;6098;49.004;8.372;2023-04-01T03:44:17;98941.08;;;10.60;75.84
12073;BME280;6098;49.004;8.372;2023-04-01T03:59:08;98943.25;;;10.67;74.93
12073;BME280;6098;49.004;8.372;2023-04-01T04:13:59;98932.81;;;10.72;75.49
12073;BME280;6098;49.004;8.372;2023-04-01T04:28:49;98931.58;;;10.78;75.18
12073;BME280;6098;49.004;8.372;2023-04-01T04:43:40;98926.40;;;10.82;75.08
12073;BME280;6098;49.004;8.372;2023-04-01T04:58:31;98905.02;;;10.85;74.72
12073;BME280;6098;49.004;8.372;2023-04-01T05:13:22;98893.59;;;10.84;74.76
12073;BME280;6098;49.004;8.372;2023-04-01T05:28:13;98903.89;;;10.75;74.62
12073;BME280;6098;49.004;8.372;2023-04-01T05:43:03;98911.94;;;10.53;77.96
12073;BME280;6098;49.004;8.372;2023-04-01T05:57:53;98897.00;;;10.31;81.23
12073;BME280;6098;49.004;8.372;2023-04-01T06:58:18;98925.99;;;10.33;86.05
12073;BME280;6098;49.004;8.372;2023-04-01T07:13:09;98934.34;;;10.26;88.93
12073;BME280;6098;49.004;8.372;2023-04-01T07:28:00;98940.29;;;10.23;91.05
12073;BME280;6098;49.004;8.372;2023-04-01T07:42:52;98951.66;;;10.10;94.69
12073;BME280;6098;49.004;8.372;2023-04-01T07:57:59;98938.42;;;10.02;95.90
12073;BME280;6098;49.004;8.372;2023-04-01T08:43:09;98967.47;;;10.54;93.06
12073;BME280;6098;49.004;8.372;2023-04-01T08:58:19;98972.57;;;10.65;92.47
12073;BME280;6098;49.004;8.372;2023-04-01T09:43:39;98997.91;;;10.62;94.11
12073;BME280;6098;49.004;8.372;2023-04-01T09:58:33;99001.36;;;10.63;92.87
12073;BME280;6098;49.004;8.372;2023-04-01T10:28:46;99017.55;;;10.73;95.35
12073;BME280;6098;49.004;8.372;2023-04-01T10:59:15;99039.81;;;10.77;93.98
12073;BME280;6098;49.004;8.372;2023-04-01T11:44:29;99064.66;;;10.83;95.63
12073;BME280;6098;49.004;8.372;2023-04-01T11:59:50;99083.98;;;10.92;95.65
12073;BME280;6098;49.004;8.372;2023-04-01T12:30:32;99100.80;;;10.70;97.48
12073;BME280;6098;49.004;8.372;2023-04-01T12:45:35;99109.35;;;10.82;97.20
12073;BME280;6098;49.004;8.372;2023-04-01T13:15:44;99122.92;;;10.98;92.58
12073;BME280;6098;49.004;8.372;2023-04-01T13:30:40;99131.50;;;11.02;93.65
12073;BME280;6098;49.004;8.372;2023-04-01T14:01:00;99150.45;;;10.89;95.09
12073;BME280;6098;49.004;8.372;2023-04-01T14:31:27;99150.17;;;10.78;95.50
12073;BME280;6098;49.004;8.372;2023-04-01T15:31:59;99176.99;;;11.32;92.94
12073;BME280;6098;49.004;8.372;2023-04-01T15:46:49;99184.78;;;11.20;93.07
12073;BME280;6098;49.004;8.372;2023-04-01T16:01:58;99203.46;;;11.03;93.56
12073;BME280;6098;49.004;8.372;2023-04-01T16:47:32;99223.23;;;11.13;90.89
12073;BME280;6098;49.004;8.372;2023-04-01T17:02:25;99240.66;;;11.10;91.74
12073;BME280;6098;49.004;8.372;2023-04-01T17:17:44;99253.37;;;11.04;87.53
12073;BME280;6098;49.004;8.372;2023-04-01T18:03:20;99301.22;;;10.87;91.13
12073;BME280;6098;49.004;8.372;2023-04-01T18:18:11;99319.64;;;10.66;90.81
12073;BME280;6098;49.004;8.372;2023-04-01T18:33:06;99327.20;;;10.41;91.73
12073;BME280;6098;49.004;8.372;2023-04-01T19:02:58;99363.16;;;10.14;91.41
12073;BME280;6098;49.004;8.372;2023-04-01T19:18:19;99387.53;;;10.12;90.88
12073;BME280;6098;49.004;8.372;2023-04-01T19:33:25;99403.73;;;10.14;90.38
12073;BME280;6098;49.004;8.372;2023-04-01T21:19:46;99495.22;;;10.54;88.04
12073;BME280;6098;49.004;8.372;2023-04-01T22:05:11;99526.40;;;10.40;86.82
12073;BME280;6098;49.004;8.372;2023-04-01T22:20:13;99530.66;;;10.35;86.66
12073;BME280;6098;49.004;8.372;2023-04-01T22:50:02;99549.39;;;10.31;86.14
12073;BME280;6098;49.004;8.372;2023-04-01T23:04:54;99563.52;;;10.31;86.26
12073;BME280;6098;49.004;8.372;2023-04-01T23:20:06;99565.94;;;10.27;86.53
12073;BME280;6098;49.004;8.372;2023-04-01T23:34:58;99594.28;;;10.25;86.86
12073;BME280;6098;49.004;8.372;2023-04-01T23:49:56;99606.59;;;10.07;90.00
